Hunters, Washington
Current Conditions -  °F | °C
As of 8:53 AM on Sunday 23 Nov 2014 (Local Time) from KDEW Reporting Station
Overcast Overcast  
Wind Chill: 33°   Ceiling: 700
Heat Index: 33°   Visibility: 10mi
Dew Point: 31°   Wind: 3mph
Humidity: 92%   Direction: 170°S
Pressure: 30.11"   Gusts: NA
Location:  48.12°N, 118.2°W
Report Text: KDEW 231653Z AUTO 17003KT 10SM OVC007 01/M01 A3011 RMK AO2 SLP216 T00061006
Loading
Personal Weather Stations






























Interactive Weather Map New forecast layout! Learn more

10-Day Weather Forecast

Advertisements
Track Severe Weather on mobile